<?xml version="1.0" encoding="UTF-8" standalone="no" ?>
<gpx xmlns="http://www.topografix.com/GPX/1/1" xmlns:xsi="http://www.w3.org/2001/XMLSchema-instance" xsi:schemaLocation="http://www.topografix.com/GPX/1/1 http://www.topografix.com/GPX/1/1/gpx.xsd" version="1.1" creator="VisuGPX - https://www.visugpx.com">
  <metadata>
    <name>plateau de chenôve</name>
    <desc><![CDATA[petit décrassage sur le plateau de chenôve]]></desc>
  </metadata>
  <trk>
    <name><![CDATA[ACTIVE LOG 025]]></name>
    <trkseg>
      <trkpt lat="47.31586" lon="5.02706">
        <ele>286.61022949219</ele>
        <time>2012-05-25T12:45:20Z</time>
      </trkpt>
      <trkpt lat="47.31573" lon="5.02702">
        <ele>264.01928710938</ele>
        <time>2012-05-25T12:45:31Z</time>
      </trkpt>
      <trkpt lat="47.31582" lon="5.02676">
        <ele>264.98059082031</ele>
        <time>2012-05-25T12:45:38Z</time>
      </trkpt>
      <trkpt lat="47.31588" lon="5.02672">
        <ele>262.09655761719</ele>
        <time>2012-05-25T12:45:50Z</time>
      </trkpt>
      <trkpt lat="47.31586" lon="5.02672">
        <ele>264.01928710938</ele>
        <time>2012-05-25T12:46:02Z</time>
      </trkpt>
      <trkpt lat="47.31591" lon="5.0267">
        <ele>258.25134277344</ele>
        <time>2012-05-25T12:46:05Z</time>
      </trkpt>
      <trkpt lat="47.31601" lon="5.02652">
        <ele>252.96398925781</ele>
        <time>2012-05-25T12:46:10Z</time>
      </trkpt>
      <trkpt lat="47.31608" lon="5.0264">
        <ele>250.56079101562</ele>
        <time>2012-05-25T12:46:13Z</time>
      </trkpt>
      <trkpt lat="47.31621" lon="5.02618">
        <ele>248.63818359375</ele>
        <time>2012-05-25T12:46:17Z</time>
      </trkpt>
      <trkpt lat="47.31651" lon="5.02573">
        <ele>246.23486328125</ele>
        <time>2012-05-25T12:46:30Z</time>
      </trkpt>
      <trkpt lat="47.31657" lon="5.02564">
        <ele>246.23486328125</ele>
        <time>2012-05-25T12:46:43Z</time>
      </trkpt>
      <trkpt lat="47.31657" lon="5.02562">
        <ele>245.75415039062</ele>
        <time>2012-05-25T12:46:59Z</time>
      </trkpt>
      <trkpt lat="47.31659" lon="5.02558">
        <ele>245.2734375</ele>
        <time>2012-05-25T12:47:19Z</time>
      </trkpt>
      <trkpt lat="47.31661" lon="5.02532">
        <ele>246.23486328125</ele>
        <time>2012-05-25T12:47:25Z</time>
      </trkpt>
      <trkpt lat="47.31651" lon="5.02511">
        <ele>248.15759277344</ele>
        <time>2012-05-25T12:47:29Z</time>
      </trkpt>
      <trkpt lat="47.31597" lon="5.02431">
        <ele>248.15759277344</ele>
        <time>2012-05-25T12:47:44Z</time>
      </trkpt>
      <trkpt lat="47.31518" lon="5.02348">
        <ele>248.63818359375</ele>
        <time>2012-05-25T12:47:57Z</time>
      </trkpt>
      <trkpt lat="47.31509" lon="5.02335">
        <ele>248.63818359375</ele>
        <time>2012-05-25T12:47:59Z</time>
      </trkpt>
      <trkpt lat="47.31494" lon="5.02307">
        <ele>248.63818359375</ele>
        <time>2012-05-25T12:48:03Z</time>
      </trkpt>
      <trkpt lat="47.31472" lon="5.02238">
        <ele>248.15759277344</ele>
        <time>2012-05-25T12:48:12Z</time>
      </trkpt>
      <trkpt lat="47.31464" lon="5.022">
        <ele>248.15759277344</ele>
        <time>2012-05-25T12:48:17Z</time>
      </trkpt>
      <trkpt lat="47.31427" lon="5.02075">
        <ele>248.15759277344</ele>
        <time>2012-05-25T12:48:33Z</time>
      </trkpt>
      <trkpt lat="47.31406" lon="5.01942">
        <ele>247.6767578125</ele>
        <time>2012-05-25T12:48:49Z</time>
      </trkpt>
      <trkpt lat="47.31391" lon="5.01811">
        <ele>248.15759277344</ele>
        <time>2012-05-25T12:49:05Z</time>
      </trkpt>
      <trkpt lat="47.31385" lon="5.01747">
        <ele>247.6767578125</ele>
        <time>2012-05-25T12:49:16Z</time>
      </trkpt>
      <trkpt lat="47.31376" lon="5.01657">
        <ele>248.63818359375</ele>
        <time>2012-05-25T12:49:30Z</time>
      </trkpt>
      <trkpt lat="47.31367" lon="5.01567">
        <ele>249.11877441406</ele>
        <time>2012-05-25T12:49:44Z</time>
      </trkpt>
      <trkpt lat="47.31365" lon="5.01554">
        <ele>249.11877441406</ele>
        <time>2012-05-25T12:49:46Z</time>
      </trkpt>
      <trkpt lat="47.31359" lon="5.01479">
        <ele>251.04138183594</ele>
        <time>2012-05-25T12:49:59Z</time>
      </trkpt>
      <trkpt lat="47.31357" lon="5.01464">
        <ele>251.04138183594</ele>
        <time>2012-05-25T12:50:04Z</time>
      </trkpt>
      <trkpt lat="47.31359" lon="5.01457">
        <ele>248.15759277344</ele>
        <time>2012-05-25T12:50:16Z</time>
      </trkpt>
      <trkpt lat="47.31359" lon="5.01451">
        <ele>248.63818359375</ele>
        <time>2012-05-25T12:50:23Z</time>
      </trkpt>
      <trkpt lat="47.31357" lon="5.01421">
        <ele>250.56079101562</ele>
        <time>2012-05-25T12:50:32Z</time>
      </trkpt>
      <trkpt lat="47.31357" lon="5.01414">
        <ele>250.56079101562</ele>
        <time>2012-05-25T12:50:33Z</time>
      </trkpt>
      <trkpt lat="47.31352" lon="5.01378">
        <ele>252.00280761719</ele>
        <time>2012-05-25T12:50:38Z</time>
      </trkpt>
      <trkpt lat="47.31342" lon="5.01324">
        <ele>252.96398925781</ele>
        <time>2012-05-25T12:50:46Z</time>
      </trkpt>
      <trkpt lat="47.31324" lon="5.0124">
        <ele>254.88659667969</ele>
        <time>2012-05-25T12:51:00Z</time>
      </trkpt>
      <trkpt lat="47.31312" lon="5.01176">
        <ele>255.84802246094</ele>
        <time>2012-05-25T12:51:11Z</time>
      </trkpt>
      <trkpt lat="47.31303" lon="5.01127">
        <ele>256.32873535156</ele>
        <time>2012-05-25T12:51:19Z</time>
      </trkpt>
      <trkpt lat="47.31301" lon="5.01114">
        <ele>256.80932617188</ele>
        <time>2012-05-25T12:51:21Z</time>
      </trkpt>
      <trkpt lat="47.31297" lon="5.0109">
        <ele>257.2900390625</ele>
        <time>2012-05-25T12:51:25Z</time>
      </trkpt>
      <trkpt lat="47.31284" lon="5.01024">
        <ele>258.73193359375</ele>
        <time>2012-05-25T12:51:36Z</time>
      </trkpt>
      <trkpt lat="47.31275" lon="5.00998">
        <ele>258.25134277344</ele>
        <time>2012-05-25T12:51:41Z</time>
      </trkpt>
      <trkpt lat="47.3126" lon="5.00974">
        <ele>259.21264648438</ele>
        <time>2012-05-25T12:51:47Z</time>
      </trkpt>
      <trkpt lat="47.31251" lon="5.00925">
        <ele>260.65454101562</ele>
        <time>2012-05-25T12:51:58Z</time>
      </trkpt>
      <trkpt lat="47.31241" lon="5.00889">
        <ele>261.13525390625</ele>
        <time>2012-05-25T12:52:10Z</time>
      </trkpt>
      <trkpt lat="47.31241" lon="5.00886">
        <ele>260.65454101562</ele>
        <time>2012-05-25T12:52:24Z</time>
      </trkpt>
      <trkpt lat="47.31236" lon="5.00848">
        <ele>260.17395019531</ele>
        <time>2012-05-25T12:52:34Z</time>
      </trkpt>
      <trkpt lat="47.3123" lon="5.00788">
        <ele>259.693359375</ele>
        <time>2012-05-25T12:52:47Z</time>
      </trkpt>
      <trkpt lat="47.3123" lon="5.00764">
        <ele>259.21264648438</ele>
        <time>2012-05-25T12:52:52Z</time>
      </trkpt>
      <trkpt lat="47.31228" lon="5.00751">
        <ele>257.77075195312</ele>
        <time>2012-05-25T12:52:56Z</time>
      </trkpt>
      <trkpt lat="47.31221" lon="5.00704">
        <ele>259.693359375</ele>
        <time>2012-05-25T12:53:09Z</time>
      </trkpt>
      <trkpt lat="47.31224" lon="5.00698">
        <ele>260.65454101562</ele>
        <time>2012-05-25T12:53:11Z</time>
      </trkpt>
      <trkpt lat="47.31219" lon="5.00668">
        <ele>261.61596679688</ele>
        <time>2012-05-25T12:53:20Z</time>
      </trkpt>
      <trkpt lat="47.31213" lon="5.00631">
        <ele>263.05786132812</ele>
        <time>2012-05-25T12:53:30Z</time>
      </trkpt>
      <trkpt lat="47.31211" lon="5.00605">
        <ele>265.94189453125</ele>
        <time>2012-05-25T12:53:39Z</time>
      </trkpt>
      <trkpt lat="47.31209" lon="5.00586">
        <ele>267.38391113281</ele>
        <time>2012-05-25T12:53:45Z</time>
      </trkpt>
      <trkpt lat="47.312" lon="5.00543">
        <ele>269.787109375</ele>
        <time>2012-05-25T12:53:59Z</time>
      </trkpt>
      <trkpt lat="47.31198" lon="5.00528">
        <ele>270.74841308594</ele>
        <time>2012-05-25T12:54:04Z</time>
      </trkpt>
      <trkpt lat="47.31191" lon="5.00492">
        <ele>273.15185546875</ele>
        <time>2012-05-25T12:54:16Z</time>
      </trkpt>
      <trkpt lat="47.31176" lon="5.00466">
        <ele>276.03564453125</ele>
        <time>2012-05-25T12:54:28Z</time>
      </trkpt>
      <trkpt lat="47.31174" lon="5.00462">
        <ele>276.51635742188</ele>
        <time>2012-05-25T12:54:30Z</time>
      </trkpt>
      <trkpt lat="47.31174" lon="5.00457">
        <ele>276.51635742188</ele>
        <time>2012-05-25T12:54:32Z</time>
      </trkpt>
      <trkpt lat="47.31176" lon="5.00449">
        <ele>277.47766113281</ele>
        <time>2012-05-25T12:54:37Z</time>
      </trkpt>
      <trkpt lat="47.31174" lon="5.00447">
        <ele>277.47766113281</ele>
        <time>2012-05-25T12:54:38Z</time>
      </trkpt>
      <trkpt lat="47.31155" lon="5.00412">
        <ele>278.91967773438</ele>
        <time>2012-05-25T12:54:50Z</time>
      </trkpt>
      <trkpt lat="47.31144" lon="5.00399">
        <ele>279.40026855469</ele>
        <time>2012-05-25T12:54:56Z</time>
      </trkpt>
      <trkpt lat="47.31133" lon="5.00389">
        <ele>279.880859375</ele>
        <time>2012-05-25T12:55:01Z</time>
      </trkpt>
      <trkpt lat="47.31101" lon="5.00344">
        <ele>282.76501464844</ele>
        <time>2012-05-25T12:55:16Z</time>
      </trkpt>
      <trkpt lat="47.31073" lon="5.00307">
        <ele>283.72619628906</ele>
        <time>2012-05-25T12:55:29Z</time>
      </trkpt>
      <trkpt lat="47.31058" lon="5.00294">
        <ele>283.24560546875</ele>
        <time>2012-05-25T12:55:34Z</time>
      </trkpt>
      <trkpt lat="47.31011" lon="5.00217">
        <ele>282.76501464844</ele>
        <time>2012-05-25T12:55:49Z</time>
      </trkpt>
      <trkpt lat="47.30994" lon="5.00168">
        <ele>282.76501464844</ele>
        <time>2012-05-25T12:55:57Z</time>
      </trkpt>
      <trkpt lat="47.30981" lon="5.00131">
        <ele>282.76501464844</ele>
        <time>2012-05-25T12:56:03Z</time>
      </trkpt>
      <trkpt lat="47.30964" lon="5.00118">
        <ele>282.76501464844</ele>
        <time>2012-05-25T12:56:07Z</time>
      </trkpt>
      <trkpt lat="47.30953" lon="5.00116">
        <ele>282.76501464844</ele>
        <time>2012-05-25T12:56:09Z</time>
      </trkpt>
      <trkpt lat="47.30945" lon="5.00097">
        <ele>283.24560546875</ele>
        <time>2012-05-25T12:56:13Z</time>
      </trkpt>
      <trkpt lat="47.3093" lon="5.00047">
        <ele>283.24560546875</ele>
        <time>2012-05-25T12:56:22Z</time>
      </trkpt>
      <trkpt lat="47.3091" lon="4.9999">
        <ele>283.24560546875</ele>
        <time>2012-05-25T12:56:32Z</time>
      </trkpt>
      <trkpt lat="47.30882" lon="4.99906">
        <ele>284.20690917969</ele>
        <time>2012-05-25T12:56:48Z</time>
      </trkpt>
      <trkpt lat="47.30859" lon="4.99835">
        <ele>285.16821289062</ele>
        <time>2012-05-25T12:57:03Z</time>
      </trkpt>
      <trkpt lat="47.30839" lon="4.99788">
        <ele>286.12951660156</ele>
        <time>2012-05-25T12:57:15Z</time>
      </trkpt>
      <trkpt lat="47.30822" lon="4.99741">
        <ele>287.57141113281</ele>
        <time>2012-05-25T12:57:28Z</time>
      </trkpt>
      <trkpt lat="47.30805" lon="4.99676">
        <ele>288.53295898438</ele>
        <time>2012-05-25T12:57:43Z</time>
      </trkpt>
      <trkpt lat="47.30792" lon="4.9962">
        <ele>292.37817382812</ele>
        <time>2012-05-25T12:57:56Z</time>
      </trkpt>
      <trkpt lat="47.30777" lon="4.99571">
        <ele>293.33935546875</ele>
        <time>2012-05-25T12:58:08Z</time>
      </trkpt>
      <trkpt lat="47.30764" lon="4.99528">
        <ele>294.78137207031</ele>
        <time>2012-05-25T12:58:19Z</time>
      </trkpt>
      <trkpt lat="47.3076" lon="4.99513">
        <ele>294.78137207031</ele>
        <time>2012-05-25T12:58:23Z</time>
      </trkpt>
      <trkpt lat="47.30758" lon="4.99498">
        <ele>294.30078125</ele>
        <time>2012-05-25T12:58:27Z</time>
      </trkpt>
      <trkpt lat="47.30745" lon="4.99457">
        <ele>292.37817382812</ele>
        <time>2012-05-25T12:58:37Z</time>
      </trkpt>
      <trkpt lat="47.30715" lon="4.99384">
        <ele>296.22351074219</ele>
        <time>2012-05-25T12:58:54Z</time>
      </trkpt>
      <trkpt lat="47.30702" lon="4.99344">
        <ele>300.06872558594</ele>
        <time>2012-05-25T12:59:07Z</time>
      </trkpt>
      <trkpt lat="47.30687" lon="4.99307">
        <ele>300.06872558594</ele>
        <time>2012-05-25T12:59:17Z</time>
      </trkpt>
      <trkpt lat="47.30676" lon="4.99279">
        <ele>301.02990722656</ele>
        <time>2012-05-25T12:59:26Z</time>
      </trkpt>
      <trkpt lat="47.30661" lon="4.99247">
        <ele>300.54931640625</ele>
        <time>2012-05-25T12:59:39Z</time>
      </trkpt>
      <trkpt lat="47.30659" lon="4.99245">
        <ele>300.06872558594</ele>
        <time>2012-05-25T13:01:17Z</time>
      </trkpt>
      <trkpt lat="47.30657" lon="4.99243">
        <ele>299.58801269531</ele>
        <time>2012-05-25T13:01:28Z</time>
      </trkpt>
      <trkpt lat="47.30655" lon="4.99243">
        <ele>299.58801269531</ele>
        <time>2012-05-25T13:01:29Z</time>
      </trkpt>
      <trkpt lat="47.30653" lon="4.99232">
        <ele>300.06872558594</ele>
        <time>2012-05-25T13:01:39Z</time>
      </trkpt>
      <trkpt lat="47.30651" lon="4.9923">
        <ele>300.54931640625</ele>
        <time>2012-05-25T13:01:47Z</time>
      </trkpt>
      <trkpt lat="47.30651" lon="4.99223">
        <ele>301.51062011719</ele>
        <time>2012-05-25T13:01:57Z</time>
      </trkpt>
      <trkpt lat="47.30636" lon="4.99193">
        <ele>303.43322753906</ele>
        <time>2012-05-25T13:02:09Z</time>
      </trkpt>
      <trkpt lat="47.30633" lon="4.99183">
        <ele>302.95251464844</ele>
        <time>2012-05-25T13:02:14Z</time>
      </trkpt>
      <trkpt lat="47.30629" lon="4.99176">
        <ele>302.95251464844</ele>
        <time>2012-05-25T13:02:18Z</time>
      </trkpt>
      <trkpt lat="47.30621" lon="4.99155">
        <ele>303.43322753906</ele>
        <time>2012-05-25T13:02:27Z</time>
      </trkpt>
      <trkpt lat="47.3061" lon="4.99131">
        <ele>304.39465332031</ele>
        <time>2012-05-25T13:02:37Z</time>
      </trkpt>
      <trkpt lat="47.30599" lon="4.99103">
        <ele>303.91394042969</ele>
        <time>2012-05-25T13:02:48Z</time>
      </trkpt>
      <trkpt lat="47.30595" lon="4.9909">
        <ele>303.91394042969</ele>
        <time>2012-05-25T13:02:53Z</time>
      </trkpt>
      <trkpt lat="47.30584" lon="4.99043">
        <ele>303.43322753906</ele>
        <time>2012-05-25T13:03:08Z</time>
      </trkpt>
      <trkpt lat="47.30578" lon="4.99013">
        <ele>302.95251464844</ele>
        <time>2012-05-25T13:03:18Z</time>
      </trkpt>
      <trkpt lat="47.30571" lon="4.98962">
        <ele>304.39465332031</ele>
        <time>2012-05-25T13:03:33Z</time>
      </trkpt>
      <trkpt lat="47.30561" lon="4.9891">
        <ele>306.7978515625</ele>
        <time>2012-05-25T13:03:49Z</time>
      </trkpt>
      <trkpt lat="47.30556" lon="4.98891">
        <ele>307.27856445312</ele>
        <time>2012-05-25T13:03:56Z</time>
      </trkpt>
      <trkpt lat="47.30543" lon="4.98848">
        <ele>307.75927734375</ele>
        <time>2012-05-25T13:04:10Z</time>
      </trkpt>
      <trkpt lat="47.30539" lon="4.98792">
        <ele>313.52722167969</ele>
        <time>2012-05-25T13:04:27Z</time>
      </trkpt>
      <trkpt lat="47.30543" lon="4.98745">
        <ele>317.85302734375</ele>
        <time>2012-05-25T13:04:41Z</time>
      </trkpt>
      <trkpt lat="47.30546" lon="4.98698">
        <ele>320.73706054688</ele>
        <time>2012-05-25T13:04:56Z</time>
      </trkpt>
      <trkpt lat="47.30539" lon="4.98648">
        <ele>323.62097167969</ele>
        <time>2012-05-25T13:05:13Z</time>
      </trkpt>
      <trkpt lat="47.30526" lon="4.9861">
        <ele>325.06298828125</ele>
        <time>2012-05-25T13:05:28Z</time>
      </trkpt>
      <trkpt lat="47.30513" lon="4.98578">
        <ele>326.5048828125</ele>
        <time>2012-05-25T13:05:39Z</time>
      </trkpt>
      <trkpt lat="47.30509" lon="4.98567">
        <ele>326.98559570312</ele>
        <time>2012-05-25T13:05:43Z</time>
      </trkpt>
      <trkpt lat="47.30498" lon="4.98537">
        <ele>329.86950683594</ele>
        <time>2012-05-25T13:05:55Z</time>
      </trkpt>
      <trkpt lat="47.30496" lon="4.9853">
        <ele>330.35021972656</ele>
        <time>2012-05-25T13:05:58Z</time>
      </trkpt>
      <trkpt lat="47.3049" lon="4.98513">
        <ele>330.83093261719</ele>
        <time>2012-05-25T13:06:06Z</time>
      </trkpt>
      <trkpt lat="47.3049" lon="4.98509">
        <ele>330.83093261719</ele>
        <time>2012-05-25T13:06:08Z</time>
      </trkpt>
      <trkpt lat="47.30485" lon="4.98494">
        <ele>329.38891601562</ele>
        <time>2012-05-25T13:06:15Z</time>
      </trkpt>
      <trkpt lat="47.30483" lon="4.98485">
        <ele>329.38891601562</ele>
        <time>2012-05-25T13:06:19Z</time>
      </trkpt>
      <trkpt lat="47.30475" lon="4.98464">
        <ele>328.42761230469</ele>
        <time>2012-05-25T13:06:26Z</time>
      </trkpt>
      <trkpt lat="47.30468" lon="4.98449">
        <ele>331.79211425781</ele>
        <time>2012-05-25T13:06:32Z</time>
      </trkpt>
      <trkpt lat="47.30447" lon="4.98421">
        <ele>336.59887695312</ele>
        <time>2012-05-25T13:06:44Z</time>
      </trkpt>
      <trkpt lat="47.30436" lon="4.9841">
        <ele>336.1181640625</ele>
        <time>2012-05-25T13:06:51Z</time>
      </trkpt>
      <trkpt lat="47.30417" lon="4.98387">
        <ele>336.59887695312</ele>
        <time>2012-05-25T13:07:03Z</time>
      </trkpt>
      <trkpt lat="47.30417" lon="4.98382">
        <ele>335.63732910156</ele>
        <time>2012-05-25T13:07:14Z</time>
      </trkpt>
      <trkpt lat="47.30415" lon="4.98378">
        <ele>333.71472167969</ele>
        <time>2012-05-25T13:15:10Z</time>
      </trkpt>
      <trkpt lat="47.30415" lon="4.98376">
        <ele>334.19543457031</ele>
        <time>2012-05-25T13:15:12Z</time>
      </trkpt>
      <trkpt lat="47.30402" lon="4.98361">
        <ele>338.521484375</ele>
        <time>2012-05-25T13:15:25Z</time>
      </trkpt>
      <trkpt lat="47.30391" lon="4.98352">
        <ele>343.80859375</ele>
        <time>2012-05-25T13:15:34Z</time>
      </trkpt>
      <trkpt lat="47.30389" lon="4.98352">
        <ele>344.28942871094</ele>
        <time>2012-05-25T13:15:36Z</time>
      </trkpt>
      <trkpt lat="47.30376" lon="4.98339">
        <ele>344.28942871094</ele>
        <time>2012-05-25T13:15:45Z</time>
      </trkpt>
      <trkpt lat="47.30363" lon="4.98329">
        <ele>345.73132324219</ele>
        <time>2012-05-25T13:15:55Z</time>
      </trkpt>
      <trkpt lat="47.3035" lon="4.98314">
        <ele>349.57653808594</ele>
        <time>2012-05-25T13:16:08Z</time>
      </trkpt>
      <trkpt lat="47.30335" lon="4.98307">
        <ele>351.49914550781</ele>
        <time>2012-05-25T13:16:18Z</time>
      </trkpt>
      <trkpt lat="47.30331" lon="4.98307">
        <ele>351.97985839844</ele>
        <time>2012-05-25T13:16:21Z</time>
      </trkpt>
      <trkpt lat="47.30327" lon="4.98303">
        <ele>353.90258789062</ele>
        <time>2012-05-25T13:16:25Z</time>
      </trkpt>
      <trkpt lat="47.30316" lon="4.98299">
        <ele>358.22839355469</ele>
        <time>2012-05-25T13:16:35Z</time>
      </trkpt>
      <trkpt lat="47.30301" lon="4.98292">
        <ele>362.07373046875</ele>
        <time>2012-05-25T13:16:46Z</time>
      </trkpt>
      <trkpt lat="47.30288" lon="4.98288">
        <ele>366.39953613281</ele>
        <time>2012-05-25T13:16:57Z</time>
      </trkpt>
      <trkpt lat="47.30282" lon="4.98286">
        <ele>367.36096191406</ele>
        <time>2012-05-25T13:17:02Z</time>
      </trkpt>
      <trkpt lat="47.30279" lon="4.98284">
        <ele>367.36096191406</ele>
        <time>2012-05-25T13:17:04Z</time>
      </trkpt>
      <trkpt lat="47.30273" lon="4.98279">
        <ele>367.84155273438</ele>
        <time>2012-05-25T13:17:09Z</time>
      </trkpt>
      <trkpt lat="47.30269" lon="4.98271">
        <ele>369.28369140625</ele>
        <time>2012-05-25T13:17:18Z</time>
      </trkpt>
      <trkpt lat="47.30267" lon="4.98266">
        <ele>369.76428222656</ele>
        <time>2012-05-25T13:17:29Z</time>
      </trkpt>
      <trkpt lat="47.30256" lon="4.98264">
        <ele>370.7255859375</ele>
        <time>2012-05-25T13:17:41Z</time>
      </trkpt>
      <trkpt lat="47.30254" lon="4.98262">
        <ele>369.76428222656</ele>
        <time>2012-05-25T13:17:56Z</time>
      </trkpt>
      <trkpt lat="47.30245" lon="4.98256">
        <ele>367.84155273438</ele>
        <time>2012-05-25T13:18:06Z</time>
      </trkpt>
      <trkpt lat="47.30237" lon="4.98249">
        <ele>368.322265625</ele>
        <time>2012-05-25T13:18:14Z</time>
      </trkpt>
      <trkpt lat="47.30228" lon="4.98241">
        <ele>367.84155273438</ele>
        <time>2012-05-25T13:18:21Z</time>
      </trkpt>
      <trkpt lat="47.30222" lon="4.98232">
        <ele>370.24487304688</ele>
        <time>2012-05-25T13:18:31Z</time>
      </trkpt>
      <trkpt lat="47.30211" lon="4.98228">
        <ele>374.09008789062</ele>
        <time>2012-05-25T13:18:41Z</time>
      </trkpt>
      <trkpt lat="47.30206" lon="4.98221">
        <ele>376.97424316406</ele>
        <time>2012-05-25T13:18:51Z</time>
      </trkpt>
      <trkpt lat="47.30204" lon="4.98217">
        <ele>377.45483398438</ele>
        <time>2012-05-25T13:18:55Z</time>
      </trkpt>
      <trkpt lat="47.30198" lon="4.98209">
        <ele>377.45483398438</ele>
        <time>2012-05-25T13:19:06Z</time>
      </trkpt>
      <trkpt lat="47.30191" lon="4.982">
        <ele>377.93542480469</ele>
        <time>2012-05-25T13:19:18Z</time>
      </trkpt>
      <trkpt lat="47.30185" lon="4.98196">
        <ele>380.33874511719</ele>
        <time>2012-05-25T13:19:28Z</time>
      </trkpt>
      <trkpt lat="47.30179" lon="4.98189">
        <ele>381.30004882812</ele>
        <time>2012-05-25T13:19:41Z</time>
      </trkpt>
      <trkpt lat="47.3017" lon="4.98191">
        <ele>381.78063964844</ele>
        <time>2012-05-25T13:19:53Z</time>
      </trkpt>
      <trkpt lat="47.30168" lon="4.98194">
        <ele>381.30004882812</ele>
        <time>2012-05-25T13:20:18Z</time>
      </trkpt>
      <trkpt lat="47.30166" lon="4.98196">
        <ele>377.45483398438</ele>
        <time>2012-05-25T13:23:03Z</time>
      </trkpt>
      <trkpt lat="47.30168" lon="4.98215">
        <ele>373.12890625</ele>
        <time>2012-05-25T13:23:14Z</time>
      </trkpt>
      <trkpt lat="47.30168" lon="4.98219">
        <ele>372.16748046875</ele>
        <time>2012-05-25T13:23:17Z</time>
      </trkpt>
      <trkpt lat="47.30164" lon="4.98241">
        <ele>371.20629882812</ele>
        <time>2012-05-25T13:23:27Z</time>
      </trkpt>
      <trkpt lat="47.30155" lon="4.98286">
        <ele>376.49353027344</ele>
        <time>2012-05-25T13:23:43Z</time>
      </trkpt>
      <trkpt lat="47.30146" lon="4.98331">
        <ele>380.33874511719</ele>
        <time>2012-05-25T13:24:00Z</time>
      </trkpt>
      <trkpt lat="47.30138" lon="4.98367">
        <ele>381.30004882812</ele>
        <time>2012-05-25T13:24:15Z</time>
      </trkpt>
      <trkpt lat="47.30136" lon="4.98382">
        <ele>381.78063964844</ele>
        <time>2012-05-25T13:24:21Z</time>
      </trkpt>
      <trkpt lat="47.30131" lon="4.98389">
        <ele>382.26135253906</ele>
        <time>2012-05-25T13:24:25Z</time>
      </trkpt>
      <trkpt lat="47.30121" lon="4.98417">
        <ele>383.22265625</ele>
        <time>2012-05-25T13:24:36Z</time>
      </trkpt>
      <trkpt lat="47.30108" lon="4.9844">
        <ele>383.70324707031</ele>
        <time>2012-05-25T13:24:45Z</time>
      </trkpt>
      <trkpt lat="47.30101" lon="4.98457">
        <ele>384.66479492188</ele>
        <time>2012-05-25T13:24:51Z</time>
      </trkpt>
      <trkpt lat="47.3008" lon="4.98498">
        <ele>386.10668945312</ele>
        <time>2012-05-25T13:25:06Z</time>
      </trkpt>
      <trkpt lat="47.30056" lon="4.98543">
        <ele>385.6259765625</ele>
        <time>2012-05-25T13:25:22Z</time>
      </trkpt>
      <trkpt lat="47.30033" lon="4.9859">
        <ele>385.14538574219</ele>
        <time>2012-05-25T13:25:39Z</time>
      </trkpt>
      <trkpt lat="47.30011" lon="4.98642">
        <ele>384.66479492188</ele>
        <time>2012-05-25T13:25:56Z</time>
      </trkpt>
      <trkpt lat="47.29994" lon="4.98678">
        <ele>384.66479492188</ele>
        <time>2012-05-25T13:26:09Z</time>
      </trkpt>
      <trkpt lat="47.29992" lon="4.98689">
        <ele>384.18408203125</ele>
        <time>2012-05-25T13:26:13Z</time>
      </trkpt>
      <trkpt lat="47.29988" lon="4.98698">
        <ele>383.70324707031</ele>
        <time>2012-05-25T13:26:16Z</time>
      </trkpt>
      <trkpt lat="47.29992" lon="4.98736">
        <ele>382.26135253906</ele>
        <time>2012-05-25T13:26:27Z</time>
      </trkpt>
      <trkpt lat="47.29988" lon="4.98773">
        <ele>380.81945800781</ele>
        <time>2012-05-25T13:26:37Z</time>
      </trkpt>
      <trkpt lat="47.29966" lon="4.98818">
        <ele>381.30004882812</ele>
        <time>2012-05-25T13:26:51Z</time>
      </trkpt>
      <trkpt lat="47.2996" lon="4.98829">
        <ele>382.74206542969</ele>
        <time>2012-05-25T13:26:56Z</time>
      </trkpt>
      <trkpt lat="47.29943" lon="4.98837">
        <ele>384.18408203125</ele>
        <time>2012-05-25T13:27:04Z</time>
      </trkpt>
      <trkpt lat="47.29925" lon="4.98833">
        <ele>384.66479492188</ele>
        <time>2012-05-25T13:27:13Z</time>
      </trkpt>
      <trkpt lat="47.29915" lon="4.98799">
        <ele>384.66479492188</ele>
        <time>2012-05-25T13:27:26Z</time>
      </trkpt>
      <trkpt lat="47.29913" lon="4.98781">
        <ele>385.14538574219</ele>
        <time>2012-05-25T13:27:32Z</time>
      </trkpt>
      <trkpt lat="47.29908" lon="4.98747">
        <ele>385.6259765625</ele>
        <time>2012-05-25T13:27:45Z</time>
      </trkpt>
      <trkpt lat="47.29908" lon="4.98736">
        <ele>385.6259765625</ele>
        <time>2012-05-25T13:27:48Z</time>
      </trkpt>
      <trkpt lat="47.299" lon="4.98687">
        <ele>385.6259765625</ele>
        <time>2012-05-25T13:28:02Z</time>
      </trkpt>
      <trkpt lat="47.29893" lon="4.98648">
        <ele>387.06799316406</ele>
        <time>2012-05-25T13:28:12Z</time>
      </trkpt>
      <trkpt lat="47.29876" lon="4.9861">
        <ele>387.54858398438</ele>
        <time>2012-05-25T13:28:24Z</time>
      </trkpt>
      <trkpt lat="47.29848" lon="4.98563">
        <ele>387.54858398438</ele>
        <time>2012-05-25T13:28:38Z</time>
      </trkpt>
      <trkpt lat="47.29829" lon="4.98522">
        <ele>387.54858398438</ele>
        <time>2012-05-25T13:28:51Z</time>
      </trkpt>
      <trkpt lat="47.29818" lon="4.98533">
        <ele>388.029296875</ele>
        <time>2012-05-25T13:28:58Z</time>
      </trkpt>
      <trkpt lat="47.29807" lon="4.98552">
        <ele>387.06799316406</ele>
        <time>2012-05-25T13:29:09Z</time>
      </trkpt>
      <trkpt lat="47.29803" lon="4.98554">
        <ele>387.54858398438</ele>
        <time>2012-05-25T13:29:12Z</time>
      </trkpt>
      <trkpt lat="47.2979" lon="4.9853">
        <ele>387.54858398438</ele>
        <time>2012-05-25T13:29:23Z</time>
      </trkpt>
      <trkpt lat="47.29764" lon="4.98485">
        <ele>387.06799316406</ele>
        <time>2012-05-25T13:29:38Z</time>
      </trkpt>
      <trkpt lat="47.29734" lon="4.98425">
        <ele>388.029296875</ele>
        <time>2012-05-25T13:29:57Z</time>
      </trkpt>
      <trkpt lat="47.29698" lon="4.98372">
        <ele>388.99060058594</ele>
        <time>2012-05-25T13:30:16Z</time>
      </trkpt>
      <trkpt lat="47.29661" lon="4.98331">
        <ele>389.95190429688</ele>
        <time>2012-05-25T13:30:31Z</time>
      </trkpt>
      <trkpt lat="47.29644" lon="4.98309">
        <ele>389.47119140625</ele>
        <time>2012-05-25T13:30:39Z</time>
      </trkpt>
      <trkpt lat="47.29651" lon="4.98277">
        <ele>389.95190429688</ele>
        <time>2012-05-25T13:30:51Z</time>
      </trkpt>
      <trkpt lat="47.29657" lon="4.98243">
        <ele>390.91320800781</ele>
        <time>2012-05-25T13:31:03Z</time>
      </trkpt>
      <trkpt lat="47.29657" lon="4.98254">
        <ele>390.4326171875</ele>
        <time>2012-05-25T13:31:08Z</time>
      </trkpt>
      <trkpt lat="47.29644" lon="4.98324">
        <ele>388.99060058594</ele>
        <time>2012-05-25T13:31:22Z</time>
      </trkpt>
      <trkpt lat="47.29629" lon="4.98393">
        <ele>388.51000976562</ele>
        <time>2012-05-25T13:31:34Z</time>
      </trkpt>
      <trkpt lat="47.29623" lon="4.9841">
        <ele>388.99060058594</ele>
        <time>2012-05-25T13:31:37Z</time>
      </trkpt>
      <trkpt lat="47.29606" lon="4.98472">
        <ele>387.06799316406</ele>
        <time>2012-05-25T13:31:50Z</time>
      </trkpt>
      <trkpt lat="47.29604" lon="4.98479">
        <ele>387.06799316406</ele>
        <time>2012-05-25T13:31:51Z</time>
      </trkpt>
      <trkpt lat="47.29567" lon="4.98556">
        <ele>384.66479492188</ele>
        <time>2012-05-25T13:32:07Z</time>
      </trkpt>
      <trkpt lat="47.29543" lon="4.98621">
        <ele>383.22265625</ele>
        <time>2012-05-25T13:32:20Z</time>
      </trkpt>
      <trkpt lat="47.29518" lon="4.98687">
        <ele>383.70324707031</ele>
        <time>2012-05-25T13:32:36Z</time>
      </trkpt>
      <trkpt lat="47.29488" lon="4.98758">
        <ele>382.26135253906</ele>
        <time>2012-05-25T13:32:51Z</time>
      </trkpt>
      <trkpt lat="47.29483" lon="4.98775">
        <ele>381.78063964844</ele>
        <time>2012-05-25T13:32:57Z</time>
      </trkpt>
      <trkpt lat="47.29466" lon="4.98771">
        <ele>381.78063964844</ele>
        <time>2012-05-25T13:33:03Z</time>
      </trkpt>
      <trkpt lat="47.29451" lon="4.98762">
        <ele>381.30004882812</ele>
        <time>2012-05-25T13:33:07Z</time>
      </trkpt>
      <trkpt lat="47.29434" lon="4.98754">
        <ele>380.81945800781</ele>
        <time>2012-05-25T13:33:11Z</time>
      </trkpt>
      <trkpt lat="47.29425" lon="4.98749">
        <ele>380.81945800781</ele>
        <time>2012-05-25T13:33:13Z</time>
      </trkpt>
      <trkpt lat="47.2937" lon="4.98724">
        <ele>378.89685058594</ele>
        <time>2012-05-25T13:33:25Z</time>
      </trkpt>
      <trkpt lat="47.2935" lon="4.98713">
        <ele>377.93542480469</ele>
        <time>2012-05-25T13:33:30Z</time>
      </trkpt>
      <trkpt lat="47.2929" lon="4.98687">
        <ele>375.53210449219</ele>
        <time>2012-05-25T13:33:41Z</time>
      </trkpt>
      <trkpt lat="47.29243" lon="4.98672">
        <ele>374.09008789062</ele>
        <time>2012-05-25T13:33:52Z</time>
      </trkpt>
      <trkpt lat="47.29224" lon="4.98668">
        <ele>374.09008789062</ele>
        <time>2012-05-25T13:33:59Z</time>
      </trkpt>
      <trkpt lat="47.29183" lon="4.98657">
        <ele>374.09008789062</ele>
        <time>2012-05-25T13:34:12Z</time>
      </trkpt>
      <trkpt lat="47.29144" lon="4.98642">
        <ele>374.09008789062</ele>
        <time>2012-05-25T13:34:23Z</time>
      </trkpt>
      <trkpt lat="47.29093" lon="4.98625">
        <ele>374.09008789062</ele>
        <time>2012-05-25T13:34:37Z</time>
      </trkpt>
      <trkpt lat="47.29046" lon="4.98614">
        <ele>374.57080078125</ele>
        <time>2012-05-25T13:34:50Z</time>
      </trkpt>
      <trkpt lat="47.29018" lon="4.98618">
        <ele>375.05151367188</ele>
        <time>2012-05-25T13:35:01Z</time>
      </trkpt>
      <trkpt lat="47.28977" lon="4.98631">
        <ele>374.09008789062</ele>
        <time>2012-05-25T13:35:13Z</time>
      </trkpt>
      <trkpt lat="47.28958" lon="4.98621">
        <ele>372.64819335938</ele>
        <time>2012-05-25T13:35:18Z</time>
      </trkpt>
      <trkpt lat="47.28928" lon="4.98601">
        <ele>371.68688964844</ele>
        <time>2012-05-25T13:35:30Z</time>
      </trkpt>
      <trkpt lat="47.28921" lon="4.98599">
        <ele>371.20629882812</ele>
        <time>2012-05-25T13:35:32Z</time>
      </trkpt>
      <trkpt lat="47.28923" lon="4.98582">
        <ele>371.68688964844</ele>
        <time>2012-05-25T13:35:37Z</time>
      </trkpt>
      <trkpt lat="47.28921" lon="4.98537">
        <ele>373.60949707031</ele>
        <time>2012-05-25T13:35:49Z</time>
      </trkpt>
      <trkpt lat="47.28919" lon="4.98492">
        <ele>375.53210449219</ele>
        <time>2012-05-25T13:35:59Z</time>
      </trkpt>
      <trkpt lat="47.28919" lon="4.98445">
        <ele>376.49353027344</ele>
        <time>2012-05-25T13:36:10Z</time>
      </trkpt>
      <trkpt lat="47.28919" lon="4.98432">
        <ele>376.97424316406</ele>
        <time>2012-05-25T13:36:14Z</time>
      </trkpt>
      <trkpt lat="47.28906" lon="4.9838">
        <ele>376.49353027344</ele>
        <time>2012-05-25T13:36:27Z</time>
      </trkpt>
      <trkpt lat="47.28895" lon="4.98399">
        <ele>375.05151367188</ele>
        <time>2012-05-25T13:36:33Z</time>
      </trkpt>
      <trkpt lat="47.28891" lon="4.9841">
        <ele>374.57080078125</ele>
        <time>2012-05-25T13:36:35Z</time>
      </trkpt>
      <trkpt lat="47.28876" lon="4.9843">
        <ele>373.60949707031</ele>
        <time>2012-05-25T13:36:41Z</time>
      </trkpt>
      <trkpt lat="47.2888" lon="4.98479">
        <ele>373.60949707031</ele>
        <time>2012-05-25T13:36:51Z</time>
      </trkpt>
      <trkpt lat="47.28893" lon="4.98539">
        <ele>372.64819335938</ele>
        <time>2012-05-25T13:37:04Z</time>
      </trkpt>
      <trkpt lat="47.28891" lon="4.98595">
        <ele>372.16748046875</ele>
        <time>2012-05-25T13:37:15Z</time>
      </trkpt>
      <trkpt lat="47.28878" lon="4.98627">
        <ele>370.7255859375</ele>
        <time>2012-05-25T13:37:21Z</time>
      </trkpt>
      <trkpt lat="47.28872" lon="4.98646">
        <ele>369.28369140625</ele>
        <time>2012-05-25T13:37:25Z</time>
      </trkpt>
      <trkpt lat="47.28872" lon="4.98651">
        <ele>368.322265625</ele>
        <time>2012-05-25T13:37:26Z</time>
      </trkpt>
      <trkpt lat="47.28861" lon="4.98678">
        <ele>364.95764160156</ele>
        <time>2012-05-25T13:37:33Z</time>
      </trkpt>
      <trkpt lat="47.2885" lon="4.98696">
        <ele>361.59313964844</ele>
        <time>2012-05-25T13:37:40Z</time>
      </trkpt>
      <trkpt lat="47.28846" lon="4.987">
        <ele>360.15112304688</ele>
        <time>2012-05-25T13:37:44Z</time>
      </trkpt>
      <trkpt lat="47.2884" lon="4.98702">
        <ele>359.18969726562</ele>
        <time>2012-05-25T13:37:48Z</time>
      </trkpt>
      <trkpt lat="47.28833" lon="4.98715">
        <ele>357.26708984375</ele>
        <time>2012-05-25T13:37:54Z</time>
      </trkpt>
      <trkpt lat="47.28831" lon="4.98717">
        <ele>356.78637695312</ele>
        <time>2012-05-25T13:37:55Z</time>
      </trkpt>
      <trkpt lat="47.28818" lon="4.98726">
        <ele>355.8251953125</ele>
        <time>2012-05-25T13:38:01Z</time>
      </trkpt>
      <trkpt lat="47.28805" lon="4.98728">
        <ele>354.38317871094</ele>
        <time>2012-05-25T13:38:08Z</time>
      </trkpt>
      <trkpt lat="47.28805" lon="4.98732">
        <ele>354.38317871094</ele>
        <time>2012-05-25T13:38:09Z</time>
      </trkpt>
      <trkpt lat="47.28805" lon="4.98743">
        <ele>353.421875</ele>
        <time>2012-05-25T13:38:11Z</time>
      </trkpt>
      <trkpt lat="47.2881" lon="4.98775">
        <ele>351.49914550781</ele>
        <time>2012-05-25T13:38:17Z</time>
      </trkpt>
      <trkpt lat="47.28805" lon="4.98848">
        <ele>349.57653808594</ele>
        <time>2012-05-25T13:38:29Z</time>
      </trkpt>
      <trkpt lat="47.28799" lon="4.98869">
        <ele>347.65393066406</ele>
        <time>2012-05-25T13:38:34Z</time>
      </trkpt>
      <trkpt lat="47.28801" lon="4.98876">
        <ele>347.17321777344</ele>
        <time>2012-05-25T13:38:36Z</time>
      </trkpt>
      <trkpt lat="47.28801" lon="4.98893">
        <ele>342.84729003906</ele>
        <time>2012-05-25T13:38:45Z</time>
      </trkpt>
      <trkpt lat="47.28801" lon="4.98899">
        <ele>342.36669921875</ele>
        <time>2012-05-25T13:38:47Z</time>
      </trkpt>
      <trkpt lat="47.2879" lon="4.98927">
        <ele>343.32788085938</ele>
        <time>2012-05-25T13:38:54Z</time>
      </trkpt>
      <trkpt lat="47.28775" lon="4.98981">
        <ele>343.32788085938</ele>
        <time>2012-05-25T13:39:05Z</time>
      </trkpt>
      <trkpt lat="47.28762" lon="4.99015">
        <ele>342.84729003906</ele>
        <time>2012-05-25T13:39:12Z</time>
      </trkpt>
      <trkpt lat="47.28756" lon="4.99026">
        <ele>341.88598632812</ele>
        <time>2012-05-25T13:39:14Z</time>
      </trkpt>
      <trkpt lat="47.28741" lon="4.99048">
        <ele>341.4052734375</ele>
        <time>2012-05-25T13:39:19Z</time>
      </trkpt>
      <trkpt lat="47.28739" lon="4.99056">
        <ele>340.92468261719</ele>
        <time>2012-05-25T13:39:20Z</time>
      </trkpt>
      <trkpt lat="47.28728" lon="4.99095">
        <ele>338.521484375</ele>
        <time>2012-05-25T13:39:27Z</time>
      </trkpt>
      <trkpt lat="47.28726" lon="4.99099">
        <ele>338.04077148438</ele>
        <time>2012-05-25T13:39:28Z</time>
      </trkpt>
      <trkpt lat="47.28719" lon="4.99116">
        <ele>336.59887695312</ele>
        <time>2012-05-25T13:39:31Z</time>
      </trkpt>
      <trkpt lat="47.287" lon="4.99131">
        <ele>332.75354003906</ele>
        <time>2012-05-25T13:39:37Z</time>
      </trkpt>
      <trkpt lat="47.28704" lon="4.99161">
        <ele>328.90832519531</ele>
        <time>2012-05-25T13:39:44Z</time>
      </trkpt>
      <trkpt lat="47.28709" lon="4.9917">
        <ele>327.46618652344</ele>
        <time>2012-05-25T13:39:46Z</time>
      </trkpt>
      <trkpt lat="47.28709" lon="4.99198">
        <ele>325.06298828125</ele>
        <time>2012-05-25T13:39:51Z</time>
      </trkpt>
      <trkpt lat="47.28722" lon="4.99226">
        <ele>324.58227539062</ele>
        <time>2012-05-25T13:39:57Z</time>
      </trkpt>
      <trkpt lat="47.28734" lon="4.99236">
        <ele>326.02416992188</ele>
        <time>2012-05-25T13:40:01Z</time>
      </trkpt>
      <trkpt lat="47.28739" lon="4.99238">
        <ele>326.5048828125</ele>
        <time>2012-05-25T13:40:02Z</time>
      </trkpt>
      <trkpt lat="47.28747" lon="4.99243">
        <ele>326.98559570312</ele>
        <time>2012-05-25T13:40:04Z</time>
      </trkpt>
      <trkpt lat="47.28767" lon="4.99249">
        <ele>328.42761230469</ele>
        <time>2012-05-25T13:40:09Z</time>
      </trkpt>
      <trkpt lat="47.2878" lon="4.99256">
        <ele>329.38891601562</ele>
        <time>2012-05-25T13:40:12Z</time>
      </trkpt>
      <trkpt lat="47.28829" lon="4.99288">
        <ele>329.86950683594</ele>
        <time>2012-05-25T13:40:24Z</time>
      </trkpt>
      <trkpt lat="47.28846" lon="4.99294">
        <ele>329.38891601562</ele>
        <time>2012-05-25T13:40:28Z</time>
      </trkpt>
      <trkpt lat="47.28857" lon="4.99299">
        <ele>329.38891601562</ele>
        <time>2012-05-25T13:40:30Z</time>
      </trkpt>
      <trkpt lat="47.289" lon="4.99326">
        <ele>331.79211425781</ele>
        <time>2012-05-25T13:40:41Z</time>
      </trkpt>
      <trkpt lat="47.28923" lon="4.99333">
        <ele>330.83093261719</ele>
        <time>2012-05-25T13:40:47Z</time>
      </trkpt>
      <trkpt lat="47.28951" lon="4.99331">
        <ele>331.3115234375</ele>
        <time>2012-05-25T13:40:54Z</time>
      </trkpt>
      <trkpt lat="47.28998" lon="4.99337">
        <ele>333.23413085938</ele>
        <time>2012-05-25T13:41:07Z</time>
      </trkpt>
      <trkpt lat="47.29043" lon="4.99365">
        <ele>333.23413085938</ele>
        <time>2012-05-25T13:41:20Z</time>
      </trkpt>
      <trkpt lat="47.29054" lon="4.99367">
        <ele>333.23413085938</ele>
        <time>2012-05-25T13:41:23Z</time>
      </trkpt>
      <trkpt lat="47.29063" lon="4.99367">
        <ele>333.23413085938</ele>
        <time>2012-05-25T13:41:26Z</time>
      </trkpt>
      <trkpt lat="47.29069" lon="4.99372">
        <ele>333.23413085938</ele>
        <time>2012-05-25T13:41:30Z</time>
      </trkpt>
      <trkpt lat="47.29078" lon="4.99378">
        <ele>333.23413085938</ele>
        <time>2012-05-25T13:41:35Z</time>
      </trkpt>
      <trkpt lat="47.29086" lon="4.99382">
        <ele>333.71472167969</ele>
        <time>2012-05-25T13:41:39Z</time>
      </trkpt>
      <trkpt lat="47.29099" lon="4.99389">
        <ele>332.75354003906</ele>
        <time>2012-05-25T13:41:43Z</time>
      </trkpt>
      <trkpt lat="47.29146" lon="4.99414">
        <ele>328.90832519531</ele>
        <time>2012-05-25T13:41:56Z</time>
      </trkpt>
      <trkpt lat="47.29151" lon="4.99417">
        <ele>328.90832519531</ele>
        <time>2012-05-25T13:41:57Z</time>
      </trkpt>
      <trkpt lat="47.29168" lon="4.99432">
        <ele>326.5048828125</ele>
        <time>2012-05-25T13:42:05Z</time>
      </trkpt>
      <trkpt lat="47.29166" lon="4.99429">
        <ele>326.98559570312</ele>
        <time>2012-05-25T13:42:22Z</time>
      </trkpt>
      <trkpt lat="47.29166" lon="4.99429">
        <ele>326.98559570312</ele>
        <time>2012-05-25T13:42:24Z</time>
      </trkpt>
      <trkpt lat="47.29164" lon="4.99427">
        <ele>327.46618652344</ele>
        <time>2012-05-25T13:42:26Z</time>
      </trkpt>
      <trkpt lat="47.29159" lon="4.99425">
        <ele>328.90832519531</ele>
        <time>2012-05-25T13:42:29Z</time>
      </trkpt>
      <trkpt lat="47.29149" lon="4.99419">
        <ele>330.35021972656</ele>
        <time>2012-05-25T13:42:35Z</time>
      </trkpt>
      <trkpt lat="47.2914" lon="4.99412">
        <ele>330.35021972656</ele>
        <time>2012-05-25T13:42:40Z</time>
      </trkpt>
      <trkpt lat="47.29114" lon="4.99395">
        <ele>331.79211425781</ele>
        <time>2012-05-25T13:42:55Z</time>
      </trkpt>
      <trkpt lat="47.29112" lon="4.99395">
        <ele>331.3115234375</ele>
        <time>2012-05-25T13:42:56Z</time>
      </trkpt>
      <trkpt lat="47.29084" lon="4.99382">
        <ele>331.3115234375</ele>
        <time>2012-05-25T13:43:11Z</time>
      </trkpt>
      <trkpt lat="47.29078" lon="4.99384">
        <ele>331.79211425781</ele>
        <time>2012-05-25T13:43:15Z</time>
      </trkpt>
      <trkpt lat="47.29071" lon="4.99419">
        <ele>329.38891601562</ele>
        <time>2012-05-25T13:43:22Z</time>
      </trkpt>
      <trkpt lat="47.29069" lon="4.99425">
        <ele>328.90832519531</ele>
        <time>2012-05-25T13:43:23Z</time>
      </trkpt>
      <trkpt lat="47.29067" lon="4.99451">
        <ele>326.5048828125</ele>
        <time>2012-05-25T13:43:27Z</time>
      </trkpt>
      <trkpt lat="47.29074" lon="4.9949">
        <ele>323.14038085938</ele>
        <time>2012-05-25T13:43:33Z</time>
      </trkpt>
      <trkpt lat="47.29082" lon="4.99515">
        <ele>320.25634765625</ele>
        <time>2012-05-25T13:43:37Z</time>
      </trkpt>
      <trkpt lat="47.29101" lon="4.99545">
        <ele>317.37243652344</ele>
        <time>2012-05-25T13:43:43Z</time>
      </trkpt>
      <trkpt lat="47.29106" lon="4.9955">
        <ele>316.89172363281</ele>
        <time>2012-05-25T13:43:44Z</time>
      </trkpt>
      <trkpt lat="47.29123" lon="4.99571">
        <ele>314.0078125</ele>
        <time>2012-05-25T13:43:49Z</time>
      </trkpt>
      <trkpt lat="47.29136" lon="4.99593">
        <ele>312.08520507812</ele>
        <time>2012-05-25T13:43:53Z</time>
      </trkpt>
      <trkpt lat="47.29177" lon="4.9965">
        <ele>305.35595703125</ele>
        <time>2012-05-25T13:44:01Z</time>
      </trkpt>
      <trkpt lat="47.2923" lon="4.99687">
        <ele>299.58801269531</ele>
        <time>2012-05-25T13:44:08Z</time>
      </trkpt>
      <trkpt lat="47.29254" lon="4.99698">
        <ele>296.7041015625</ele>
        <time>2012-05-25T13:44:11Z</time>
      </trkpt>
      <trkpt lat="47.29273" lon="4.99708">
        <ele>294.30078125</ele>
        <time>2012-05-25T13:44:15Z</time>
      </trkpt>
      <trkpt lat="47.2928" lon="4.99743">
        <ele>292.85876464844</ele>
        <time>2012-05-25T13:44:19Z</time>
      </trkpt>
      <trkpt lat="47.29277" lon="4.99777">
        <ele>290.45556640625</ele>
        <time>2012-05-25T13:44:22Z</time>
      </trkpt>
      <trkpt lat="47.29271" lon="4.99826">
        <ele>288.05224609375</ele>
        <time>2012-05-25T13:44:26Z</time>
      </trkpt>
      <trkpt lat="47.29254" lon="4.99887">
        <ele>284.20690917969</ele>
        <time>2012-05-25T13:44:31Z</time>
      </trkpt>
      <trkpt lat="47.29241" lon="4.99934">
        <ele>281.32299804688</ele>
        <time>2012-05-25T13:44:35Z</time>
      </trkpt>
      <trkpt lat="47.29237" lon="4.99955">
        <ele>280.36169433594</ele>
        <time>2012-05-25T13:44:37Z</time>
      </trkpt>
      <trkpt lat="47.29234" lon="4.99974">
        <ele>279.40026855469</ele>
        <time>2012-05-25T13:44:39Z</time>
      </trkpt>
      <trkpt lat="47.29228" lon="5.00007">
        <ele>277.47766113281</ele>
        <time>2012-05-25T13:44:43Z</time>
      </trkpt>
      <trkpt lat="47.29249" lon="5.00028">
        <ele>277.47766113281</ele>
        <time>2012-05-25T13:44:49Z</time>
      </trkpt>
      <trkpt lat="47.29262" lon="5.00035">
        <ele>276.9970703125</ele>
        <time>2012-05-25T13:44:52Z</time>
      </trkpt>
      <trkpt lat="47.29282" lon="5.00047">
        <ele>276.03564453125</ele>
        <time>2012-05-25T13:44:56Z</time>
      </trkpt>
      <trkpt lat="47.2929" lon="5.00056">
        <ele>275.55505371094</ele>
        <time>2012-05-25T13:44:58Z</time>
      </trkpt>
      <trkpt lat="47.29312" lon="5.00086">
        <ele>274.11303710938</ele>
        <time>2012-05-25T13:45:04Z</time>
      </trkpt>
      <trkpt lat="47.29335" lon="5.00108">
        <ele>274.11303710938</ele>
        <time>2012-05-25T13:45:10Z</time>
      </trkpt>
      <trkpt lat="47.29376" lon="5.00157">
        <ele>275.07446289062</ele>
        <time>2012-05-25T13:45:20Z</time>
      </trkpt>
      <trkpt lat="47.29383" lon="5.00161">
        <ele>275.07446289062</ele>
        <time>2012-05-25T13:45:21Z</time>
      </trkpt>
      <trkpt lat="47.29398" lon="5.00174">
        <ele>275.07446289062</ele>
        <time>2012-05-25T13:45:24Z</time>
      </trkpt>
      <trkpt lat="47.29406" lon="5.00221">
        <ele>273.15185546875</ele>
        <time>2012-05-25T13:45:30Z</time>
      </trkpt>
      <trkpt lat="47.29406" lon="5.00228">
        <ele>273.15185546875</ele>
        <time>2012-05-25T13:45:31Z</time>
      </trkpt>
      <trkpt lat="47.29404" lon="5.00253">
        <ele>272.1904296875</ele>
        <time>2012-05-25T13:45:34Z</time>
      </trkpt>
      <trkpt lat="47.2941" lon="5.00309">
        <ele>271.22912597656</ele>
        <time>2012-05-25T13:45:41Z</time>
      </trkpt>
      <trkpt lat="47.29419" lon="5.0032">
        <ele>270.74841308594</ele>
        <time>2012-05-25T13:45:43Z</time>
      </trkpt>
      <trkpt lat="47.29425" lon="5.00326">
        <ele>270.74841308594</ele>
        <time>2012-05-25T13:45:44Z</time>
      </trkpt>
      <trkpt lat="47.29445" lon="5.00346">
        <ele>270.26770019531</ele>
        <time>2012-05-25T13:45:48Z</time>
      </trkpt>
      <trkpt lat="47.29449" lon="5.0035">
        <ele>269.787109375</ele>
        <time>2012-05-25T13:45:49Z</time>
      </trkpt>
      <trkpt lat="47.29475" lon="5.0038">
        <ele>269.787109375</ele>
        <time>2012-05-25T13:45:58Z</time>
      </trkpt>
      <trkpt lat="47.2947" lon="5.00404">
        <ele>269.30651855469</ele>
        <time>2012-05-25T13:46:02Z</time>
      </trkpt>
      <trkpt lat="47.2946" lon="5.00453">
        <ele>267.38391113281</ele>
        <time>2012-05-25T13:46:10Z</time>
      </trkpt>
      <trkpt lat="47.29477" lon="5.00481">
        <ele>266.90319824219</ele>
        <time>2012-05-25T13:46:16Z</time>
      </trkpt>
      <trkpt lat="47.29488" lon="5.00479">
        <ele>266.42248535156</ele>
        <time>2012-05-25T13:46:18Z</time>
      </trkpt>
      <trkpt lat="47.29496" lon="5.00474">
        <ele>266.90319824219</ele>
        <time>2012-05-25T13:46:20Z</time>
      </trkpt>
      <trkpt lat="47.29541" lon="5.00459">
        <ele>267.38391113281</ele>
        <time>2012-05-25T13:46:32Z</time>
      </trkpt>
      <trkpt lat="47.2955" lon="5.00498">
        <ele>265.94189453125</ele>
        <time>2012-05-25T13:46:41Z</time>
      </trkpt>
      <trkpt lat="47.29554" lon="5.00528">
        <ele>264.49987792969</ele>
        <time>2012-05-25T13:46:47Z</time>
      </trkpt>
      <trkpt lat="47.29524" lon="5.00552">
        <ele>263.53857421875</ele>
        <time>2012-05-25T13:46:57Z</time>
      </trkpt>
      <trkpt lat="47.29501" lon="5.0058">
        <ele>263.05786132812</ele>
        <time>2012-05-25T13:47:06Z</time>
      </trkpt>
      <trkpt lat="47.29464" lon="5.00584">
        <ele>263.05786132812</ele>
        <time>2012-05-25T13:47:18Z</time>
      </trkpt>
      <trkpt lat="47.29443" lon="5.00558">
        <ele>263.53857421875</ele>
        <time>2012-05-25T13:47:28Z</time>
      </trkpt>
      <trkpt lat="47.29432" lon="5.00565">
        <ele>263.53857421875</ele>
        <time>2012-05-25T13:47:37Z</time>
      </trkpt>
      <trkpt lat="47.29432" lon="5.00571">
        <ele>263.53857421875</ele>
        <time>2012-05-25T13:47:38Z</time>
      </trkpt>
      <trkpt lat="47.29425" lon="5.00601">
        <ele>263.05786132812</ele>
        <time>2012-05-25T13:47:43Z</time>
      </trkpt>
      <trkpt lat="47.29413" lon="5.00672">
        <ele>262.5771484375</ele>
        <time>2012-05-25T13:47:53Z</time>
      </trkpt>
      <trkpt lat="47.29387" lon="5.00792">
        <ele>260.17395019531</ele>
        <time>2012-05-25T13:48:07Z</time>
      </trkpt>
      <trkpt lat="47.29363" lon="5.00906">
        <ele>258.25134277344</ele>
        <time>2012-05-25T13:48:21Z</time>
      </trkpt>
      <trkpt lat="47.29355" lon="5.00944">
        <ele>257.77075195312</ele>
        <time>2012-05-25T13:48:26Z</time>
      </trkpt>
      <trkpt lat="47.29348" lon="5.00972">
        <ele>257.77075195312</ele>
        <time>2012-05-25T13:48:30Z</time>
      </trkpt>
      <trkpt lat="47.29346" lon="5.00985">
        <ele>259.21264648438</ele>
        <time>2012-05-25T13:48:37Z</time>
      </trkpt>
      <trkpt lat="47.29348" lon="5.00998">
        <ele>258.73193359375</ele>
        <time>2012-05-25T13:48:57Z</time>
      </trkpt>
      <trkpt lat="47.29361" lon="5.01007">
        <ele>259.21264648438</ele>
        <time>2012-05-25T13:49:01Z</time>
      </trkpt>
      <trkpt lat="47.29413" lon="5.01054">
        <ele>259.21264648438</ele>
        <time>2012-05-25T13:49:16Z</time>
      </trkpt>
      <trkpt lat="47.29417" lon="5.01056">
        <ele>258.73193359375</ele>
        <time>2012-05-25T13:49:24Z</time>
      </trkpt>
      <trkpt lat="47.29438" lon="5.01075">
        <ele>258.73193359375</ele>
        <time>2012-05-25T13:49:50Z</time>
      </trkpt>
      <trkpt lat="47.29518" lon="5.0114">
        <ele>257.77075195312</ele>
        <time>2012-05-25T13:50:09Z</time>
      </trkpt>
      <trkpt lat="47.29543" lon="5.01157">
        <ele>257.2900390625</ele>
        <time>2012-05-25T13:50:15Z</time>
      </trkpt>
      <trkpt lat="47.29565" lon="5.01168">
        <ele>257.77075195312</ele>
        <time>2012-05-25T13:50:20Z</time>
      </trkpt>
      <trkpt lat="47.2958" lon="5.0118">
        <ele>257.2900390625</ele>
        <time>2012-05-25T13:50:24Z</time>
      </trkpt>
      <trkpt lat="47.29636" lon="5.01228">
        <ele>255.84802246094</ele>
        <time>2012-05-25T13:50:38Z</time>
      </trkpt>
      <trkpt lat="47.29687" lon="5.01271">
        <ele>254.88659667969</ele>
        <time>2012-05-25T13:50:53Z</time>
      </trkpt>
      <trkpt lat="47.29709" lon="5.0129">
        <ele>254.40600585938</ele>
        <time>2012-05-25T13:51:04Z</time>
      </trkpt>
      <trkpt lat="47.29717" lon="5.01296">
        <ele>254.40600585938</ele>
        <time>2012-05-25T13:51:12Z</time>
      </trkpt>
      <trkpt lat="47.2976" lon="5.01331">
        <ele>254.88659667969</ele>
        <time>2012-05-25T13:51:27Z</time>
      </trkpt>
      <trkpt lat="47.29769" lon="5.01343">
        <ele>254.40600585938</ele>
        <time>2012-05-25T13:51:33Z</time>
      </trkpt>
      <trkpt lat="47.29773" lon="5.0135">
        <ele>253.92541503906</ele>
        <time>2012-05-25T13:51:42Z</time>
      </trkpt>
      <trkpt lat="47.2979" lon="5.01367">
        <ele>254.40600585938</ele>
        <time>2012-05-25T13:51:48Z</time>
      </trkpt>
      <trkpt lat="47.29857" lon="5.0144">
        <ele>253.92541503906</ele>
        <time>2012-05-25T13:52:04Z</time>
      </trkpt>
      <trkpt lat="47.29934" lon="5.01541">
        <ele>251.52209472656</ele>
        <time>2012-05-25T13:52:21Z</time>
      </trkpt>
      <trkpt lat="47.30031" lon="5.01665">
        <ele>247.19604492188</ele>
        <time>2012-05-25T13:52:40Z</time>
      </trkpt>
      <trkpt lat="47.30069" lon="5.01713">
        <ele>245.75415039062</ele>
        <time>2012-05-25T13:52:48Z</time>
      </trkpt>
      <trkpt lat="47.30138" lon="5.01792">
        <ele>244.31225585938</ele>
        <time>2012-05-25T13:53:03Z</time>
      </trkpt>
      <trkpt lat="47.30149" lon="5.01805">
        <ele>243.83154296875</ele>
        <time>2012-05-25T13:53:05Z</time>
      </trkpt>
      <trkpt lat="47.30211" lon="5.01876">
        <ele>242.87023925781</ele>
        <time>2012-05-25T13:53:18Z</time>
      </trkpt>
      <trkpt lat="47.30282" lon="5.01951">
        <ele>243.35083007812</ele>
        <time>2012-05-25T13:53:34Z</time>
      </trkpt>
      <trkpt lat="47.30348" lon="5.02013">
        <ele>242.87023925781</ele>
        <time>2012-05-25T13:53:50Z</time>
      </trkpt>
      <trkpt lat="47.30421" lon="5.02077">
        <ele>243.83154296875</ele>
        <time>2012-05-25T13:54:07Z</time>
      </trkpt>
      <trkpt lat="47.30496" lon="5.0215">
        <ele>242.87023925781</ele>
        <time>2012-05-25T13:54:26Z</time>
      </trkpt>
      <trkpt lat="47.30537" lon="5.02193">
        <ele>242.3896484375</ele>
        <time>2012-05-25T13:54:39Z</time>
      </trkpt>
      <trkpt lat="47.30539" lon="5.022">
        <ele>242.3896484375</ele>
        <time>2012-05-25T13:54:41Z</time>
      </trkpt>
      <trkpt lat="47.30548" lon="5.02208">
        <ele>243.35083007812</ele>
        <time>2012-05-25T13:54:51Z</time>
      </trkpt>
      <trkpt lat="47.3055" lon="5.0221">
        <ele>243.35083007812</ele>
        <time>2012-05-25T13:55:16Z</time>
      </trkpt>
      <trkpt lat="47.30593" lon="5.02228">
        <ele>243.83154296875</ele>
        <time>2012-05-25T13:55:27Z</time>
      </trkpt>
      <trkpt lat="47.30606" lon="5.02234">
        <ele>243.83154296875</ele>
        <time>2012-05-25T13:55:30Z</time>
      </trkpt>
      <trkpt lat="47.30674" lon="5.0227">
        <ele>245.2734375</ele>
        <time>2012-05-25T13:55:46Z</time>
      </trkpt>
      <trkpt lat="47.30747" lon="5.02307">
        <ele>244.31225585938</ele>
        <time>2012-05-25T13:56:03Z</time>
      </trkpt>
      <trkpt lat="47.3076" lon="5.02316">
        <ele>243.83154296875</ele>
        <time>2012-05-25T13:56:06Z</time>
      </trkpt>
      <trkpt lat="47.30822" lon="5.02363">
        <ele>241.90893554688</ele>
        <time>2012-05-25T13:56:20Z</time>
      </trkpt>
      <trkpt lat="47.30839" lon="5.02378">
        <ele>241.90893554688</ele>
        <time>2012-05-25T13:56:24Z</time>
      </trkpt>
      <trkpt lat="47.30912" lon="5.02446">
        <ele>241.42822265625</ele>
        <time>2012-05-25T13:56:41Z</time>
      </trkpt>
      <trkpt lat="47.30917" lon="5.02451">
        <ele>240.94763183594</ele>
        <time>2012-05-25T13:56:42Z</time>
      </trkpt>
      <trkpt lat="47.30964" lon="5.025">
        <ele>241.42822265625</ele>
        <time>2012-05-25T13:56:54Z</time>
      </trkpt>
      <trkpt lat="47.30983" lon="5.02522">
        <ele>240.46704101562</ele>
        <time>2012-05-25T13:56:59Z</time>
      </trkpt>
      <trkpt lat="47.31007" lon="5.02547">
        <ele>240.46704101562</ele>
        <time>2012-05-25T13:57:06Z</time>
      </trkpt>
      <trkpt lat="47.31035" lon="5.02567">
        <ele>240.46704101562</ele>
        <time>2012-05-25T13:57:14Z</time>
      </trkpt>
      <trkpt lat="47.31073" lon="5.02607">
        <ele>241.90893554688</ele>
        <time>2012-05-25T13:57:28Z</time>
      </trkpt>
      <trkpt lat="47.31103" lon="5.02635">
        <ele>240.94763183594</ele>
        <time>2012-05-25T13:57:40Z</time>
      </trkpt>
      <trkpt lat="47.31118" lon="5.02652">
        <ele>240.94763183594</ele>
        <time>2012-05-25T13:57:49Z</time>
      </trkpt>
      <trkpt lat="47.31125" lon="5.02657">
        <ele>240.94763183594</ele>
        <time>2012-05-25T13:57:51Z</time>
      </trkpt>
      <trkpt lat="47.31155" lon="5.02678">
        <ele>241.42822265625</ele>
        <time>2012-05-25T13:58:03Z</time>
      </trkpt>
      <trkpt lat="47.31189" lon="5.02695">
        <ele>241.42822265625</ele>
        <time>2012-05-25T13:58:16Z</time>
      </trkpt>
      <trkpt lat="47.31202" lon="5.02702">
        <ele>241.42822265625</ele>
        <time>2012-05-25T13:58:21Z</time>
      </trkpt>
      <trkpt lat="47.31217" lon="5.0271">
        <ele>242.87023925781</ele>
        <time>2012-05-25T13:58:29Z</time>
      </trkpt>
      <trkpt lat="47.31234" lon="5.0271">
        <ele>242.87023925781</ele>
        <time>2012-05-25T13:58:36Z</time>
      </trkpt>
      <trkpt lat="47.31279" lon="5.0268">
        <ele>243.83154296875</ele>
        <time>2012-05-25T13:58:50Z</time>
      </trkpt>
      <trkpt lat="47.31303" lon="5.02667">
        <ele>244.31225585938</ele>
        <time>2012-05-25T13:58:56Z</time>
      </trkpt>
      <trkpt lat="47.31361" lon="5.02635">
        <ele>244.79284667969</ele>
        <time>2012-05-25T13:59:11Z</time>
      </trkpt>
      <trkpt lat="47.31406" lon="5.02607">
        <ele>246.23486328125</ele>
        <time>2012-05-25T13:59:22Z</time>
      </trkpt>
      <trkpt lat="47.31427" lon="5.02594">
        <ele>246.71545410156</ele>
        <time>2012-05-25T13:59:27Z</time>
      </trkpt>
      <trkpt lat="47.31481" lon="5.02564">
        <ele>247.19604492188</ele>
        <time>2012-05-25T13:59:39Z</time>
      </trkpt>
      <trkpt lat="47.315" lon="5.02556">
        <ele>246.71545410156</ele>
        <time>2012-05-25T13:59:43Z</time>
      </trkpt>
      <trkpt lat="47.31554" lon="5.02522">
        <ele>244.79284667969</ele>
        <time>2012-05-25T13:59:54Z</time>
      </trkpt>
      <trkpt lat="47.31567" lon="5.02511">
        <ele>244.79284667969</ele>
        <time>2012-05-25T13:59:57Z</time>
      </trkpt>
      <trkpt lat="47.31599" lon="5.02483">
        <ele>245.75415039062</ele>
        <time>2012-05-25T14:00:06Z</time>
      </trkpt>
      <trkpt lat="47.31606" lon="5.02479">
        <ele>245.75415039062</ele>
        <time>2012-05-25T14:00:09Z</time>
      </trkpt>
      <trkpt lat="47.3161" lon="5.02476">
        <ele>245.75415039062</ele>
        <time>2012-05-25T14:00:11Z</time>
      </trkpt>
      <trkpt lat="47.31623" lon="5.02485">
        <ele>246.71545410156</ele>
        <time>2012-05-25T14:00:17Z</time>
      </trkpt>
      <trkpt lat="47.3164" lon="5.02517">
        <ele>244.79284667969</ele>
        <time>2012-05-25T14:00:27Z</time>
      </trkpt>
      <trkpt lat="47.31683" lon="5.02577">
        <ele>241.90893554688</ele>
        <time>2012-05-25T14:00:37Z</time>
      </trkpt>
      <trkpt lat="47.31728" lon="5.02622">
        <ele>240.94763183594</ele>
        <time>2012-05-25T14:00:47Z</time>
      </trkpt>
      <trkpt lat="47.31794" lon="5.02721">
        <ele>236.62170410156</ele>
        <time>2012-05-25T14:01:04Z</time>
      </trkpt>
      <trkpt lat="47.31814" lon="5.02751">
        <ele>235.66027832031</ele>
        <time>2012-05-25T14:01:09Z</time>
      </trkpt>
      <trkpt lat="47.31839" lon="5.02796">
        <ele>235.66027832031</ele>
        <time>2012-05-25T14:01:17Z</time>
      </trkpt>
      <trkpt lat="47.31852" lon="5.02818">
        <ele>234.69909667969</ele>
        <time>2012-05-25T14:01:21Z</time>
      </trkpt>
      <trkpt lat="47.31865" lon="5.02867">
        <ele>234.21838378906</ele>
        <time>2012-05-25T14:01:31Z</time>
      </trkpt>
      <trkpt lat="47.31852" lon="5.02925">
        <ele>230.85375976562</ele>
        <time>2012-05-25T14:01:42Z</time>
      </trkpt>
      <trkpt lat="47.31831" lon="5.03006">
        <ele>231.81494140625</ele>
        <time>2012-05-25T14:01:55Z</time>
      </trkpt>
      <trkpt lat="47.31809" lon="5.03062">
        <ele>232.29577636719</ele>
        <time>2012-05-25T14:02:06Z</time>
      </trkpt>
      <trkpt lat="47.31797" lon="5.03094">
        <ele>231.81494140625</ele>
        <time>2012-05-25T14:02:16Z</time>
      </trkpt>
      <trkpt lat="47.31788" lon="5.03118">
        <ele>234.21838378906</ele>
        <time>2012-05-25T14:02:24Z</time>
      </trkpt>
      <trkpt lat="47.31786" lon="5.03122">
        <ele>234.21838378906</ele>
        <time>2012-05-25T14:02:41Z</time>
      </trkpt>
      <trkpt lat="47.31777" lon="5.03148">
        <ele>235.1796875</ele>
        <time>2012-05-25T14:02:52Z</time>
      </trkpt>
      <trkpt lat="47.31775" lon="5.03176">
        <ele>235.1796875</ele>
        <time>2012-05-25T14:02:57Z</time>
      </trkpt>
      <trkpt lat="47.31784" lon="5.03204">
        <ele>233.25708007812</ele>
        <time>2012-05-25T14:03:02Z</time>
      </trkpt>
      <trkpt lat="47.31822" lon="5.03277">
        <ele>231.33435058594</ele>
        <time>2012-05-25T14:03:14Z</time>
      </trkpt>
      <trkpt lat="47.31824" lon="5.03283">
        <ele>231.33435058594</ele>
        <time>2012-05-25T14:03:15Z</time>
      </trkpt>
      <trkpt lat="47.31837" lon="5.03303">
        <ele>231.33435058594</ele>
        <time>2012-05-25T14:03:19Z</time>
      </trkpt>
      <trkpt lat="47.31848" lon="5.03322">
        <ele>231.81494140625</ele>
        <time>2012-05-25T14:03:23Z</time>
      </trkpt>
      <trkpt lat="47.31857" lon="5.03343">
        <ele>231.81494140625</ele>
        <time>2012-05-25T14:03:27Z</time>
      </trkpt>
      <trkpt lat="47.31874" lon="5.03371">
        <ele>232.29577636719</ele>
        <time>2012-05-25T14:03:33Z</time>
      </trkpt>
      <trkpt lat="47.31906" lon="5.03453">
        <ele>233.25708007812</ele>
        <time>2012-05-25T14:03:48Z</time>
      </trkpt>
      <trkpt lat="47.31915" lon="5.03483">
        <ele>233.73767089844</ele>
        <time>2012-05-25T14:03:54Z</time>
      </trkpt>
      <trkpt lat="47.31893" lon="5.03513">
        <ele>235.1796875</ele>
        <time>2012-05-25T14:04:04Z</time>
      </trkpt>
      <trkpt lat="47.31891" lon="5.03515">
        <ele>235.66027832031</ele>
        <time>2012-05-25T14:04:05Z</time>
      </trkpt>
      <trkpt lat="47.31887" lon="5.03521">
        <ele>236.14099121094</ele>
        <time>2012-05-25T14:04:07Z</time>
      </trkpt>
      <trkpt lat="47.31889" lon="5.03539">
        <ele>237.58288574219</ele>
        <time>2012-05-25T14:04:12Z</time>
      </trkpt>
      <trkpt lat="47.31884" lon="5.03564">
        <ele>239.50549316406</ele>
        <time>2012-05-25T14:04:21Z</time>
      </trkpt>
      <trkpt lat="47.31882" lon="5.03569">
        <ele>239.02490234375</ele>
        <time>2012-05-25T14:04:22Z</time>
      </trkpt>
      <trkpt lat="47.31869" lon="5.03594">
        <ele>236.62170410156</ele>
        <time>2012-05-25T14:04:29Z</time>
      </trkpt>
      <trkpt lat="47.31884" lon="5.03642">
        <ele>235.66027832031</ele>
        <time>2012-05-25T14:04:38Z</time>
      </trkpt>
      <trkpt lat="47.31887" lon="5.03648">
        <ele>235.66027832031</ele>
        <time>2012-05-25T14:04:39Z</time>
      </trkpt>
      <trkpt lat="47.31915" lon="5.03691">
        <ele>236.62170410156</ele>
        <time>2012-05-25T14:04:49Z</time>
      </trkpt>
      <trkpt lat="47.31932" lon="5.03717">
        <ele>237.10229492188</ele>
        <time>2012-05-25T14:04:57Z</time>
      </trkpt>
      <trkpt lat="47.31915" lon="5.03738">
        <ele>235.1796875</ele>
        <time>2012-05-25T14:05:05Z</time>
      </trkpt>
      <trkpt lat="47.31912" lon="5.0374">
        <ele>234.21838378906</ele>
        <time>2012-05-25T14:05:06Z</time>
      </trkpt>
      <trkpt lat="47.31919" lon="5.0376">
        <ele>233.73767089844</ele>
        <time>2012-05-25T14:05:10Z</time>
      </trkpt>
      <trkpt lat="47.3194" lon="5.03792">
        <ele>233.73767089844</ele>
        <time>2012-05-25T14:05:19Z</time>
      </trkpt>
      <trkpt lat="47.31957" lon="5.03813">
        <ele>236.62170410156</ele>
        <time>2012-05-25T14:05:27Z</time>
      </trkpt>
      <trkpt lat="47.31957" lon="5.03818">
        <ele>237.58288574219</ele>
        <time>2012-05-25T14:05:46Z</time>
      </trkpt>
      <trkpt lat="47.31957" lon="5.03818">
        <ele>240.46704101562</ele>
        <time>2012-05-25T14:06:55Z</time>
      </trkpt>
      <trkpt lat="47.31957" lon="5.0382">
        <ele>240.46704101562</ele>
        <time>2012-05-25T14:07:21Z</time>
      </trkpt>
      <trkpt lat="47.31966" lon="5.03828">
        <ele>240.46704101562</ele>
        <time>2012-05-25T14:07:25Z</time>
      </trkpt>
      <trkpt lat="47.31992" lon="5.0386">
        <ele>241.42822265625</ele>
        <time>2012-05-25T14:07:35Z</time>
      </trkpt>
      <trkpt lat="47.32002" lon="5.03875">
        <ele>242.87023925781</ele>
        <time>2012-05-25T14:07:40Z</time>
      </trkpt>
      <trkpt lat="47.32002" lon="5.03897">
        <ele>246.23486328125</ele>
        <time>2012-05-25T14:07:46Z</time>
      </trkpt>
      <trkpt lat="47.31996" lon="5.03936">
        <ele>251.04138183594</ele>
        <time>2012-05-25T14:07:54Z</time>
      </trkpt>
      <trkpt lat="47.31994" lon="5.03981">
        <ele>253.44470214844</ele>
        <time>2012-05-25T14:08:06Z</time>
      </trkpt>
      <trkpt lat="47.3199" lon="5.04013">
        <ele>252.96398925781</ele>
        <time>2012-05-25T14:08:16Z</time>
      </trkpt>
      <trkpt lat="47.31992" lon="5.04017">
        <ele>252.96398925781</ele>
        <time>2012-05-25T14:08:17Z</time>
      </trkpt>
      <trkpt lat="47.32011" lon="5.04039">
        <ele>253.44470214844</ele>
        <time>2012-05-25T14:08:22Z</time>
      </trkpt>
      <trkpt lat="47.32056" lon="5.04088">
        <ele>260.65454101562</ele>
        <time>2012-05-25T14:08:35Z</time>
      </trkpt>
      <trkpt lat="47.32093" lon="5.04129">
        <ele>269.787109375</ele>
        <time>2012-05-25T14:08:47Z</time>
      </trkpt>
      <trkpt lat="47.32123" lon="5.04165">
        <ele>263.05786132812</ele>
        <time>2012-05-25T14:08:58Z</time>
      </trkpt>
      <trkpt lat="47.32131" lon="5.04187">
        <ele>261.61596679688</ele>
        <time>2012-05-25T14:09:03Z</time>
      </trkpt>
      <trkpt lat="47.32133" lon="5.04206">
        <ele>260.17395019531</ele>
        <time>2012-05-25T14:09:07Z</time>
      </trkpt>
      <trkpt lat="47.32127" lon="5.04266">
        <ele>258.25134277344</ele>
        <time>2012-05-25T14:09:18Z</time>
      </trkpt>
      <trkpt lat="47.32125" lon="5.04281">
        <ele>257.77075195312</ele>
        <time>2012-05-25T14:09:21Z</time>
      </trkpt>
      <trkpt lat="47.32123" lon="5.04324">
        <ele>257.2900390625</ele>
        <time>2012-05-25T14:09:30Z</time>
      </trkpt>
      <trkpt lat="47.32123" lon="5.04328">
        <ele>257.77075195312</ele>
        <time>2012-05-25T14:09:31Z</time>
      </trkpt>
      <trkpt lat="47.32148" lon="5.04348">
        <ele>260.17395019531</ele>
        <time>2012-05-25T14:09:39Z</time>
      </trkpt>
      <trkpt lat="47.32181" lon="5.04354">
        <ele>261.13525390625</ele>
        <time>2012-05-25T14:09:46Z</time>
      </trkpt>
      <trkpt lat="47.322" lon="5.04354">
        <ele>263.05786132812</ele>
        <time>2012-05-25T14:09:51Z</time>
      </trkpt>
      <trkpt lat="47.3223" lon="5.04363">
        <ele>266.90319824219</ele>
        <time>2012-05-25T14:09:58Z</time>
      </trkpt>
      <trkpt lat="47.32236" lon="5.04397">
        <ele>267.38391113281</ele>
        <time>2012-05-25T14:10:04Z</time>
      </trkpt>
      <trkpt lat="47.32249" lon="5.04408">
        <ele>265.94189453125</ele>
        <time>2012-05-25T14:10:07Z</time>
      </trkpt>
      <trkpt lat="47.32281" lon="5.04423">
        <ele>267.38391113281</ele>
        <time>2012-05-25T14:10:19Z</time>
      </trkpt>
      <trkpt lat="47.32294" lon="5.04431">
        <ele>268.34509277344</ele>
        <time>2012-05-25T14:10:26Z</time>
      </trkpt>
      <trkpt lat="47.32346" lon="5.04451">
        <ele>273.15185546875</ele>
        <time>2012-05-25T14:10:38Z</time>
      </trkpt>
      <trkpt lat="47.32359" lon="5.04453">
        <ele>274.11303710938</ele>
        <time>2012-05-25T14:10:41Z</time>
      </trkpt>
      <trkpt lat="47.32378" lon="5.04453">
        <ele>276.03564453125</ele>
        <time>2012-05-25T14:10:45Z</time>
      </trkpt>
      <trkpt lat="47.32399" lon="5.04459">
        <ele>277.95825195312</ele>
        <time>2012-05-25T14:10:50Z</time>
      </trkpt>
      <trkpt lat="47.32402" lon="5.04478">
        <ele>277.47766113281</ele>
        <time>2012-05-25T14:10:54Z</time>
      </trkpt>
      <trkpt lat="47.32397" lon="5.04502">
        <ele>278.91967773438</ele>
        <time>2012-05-25T14:10:58Z</time>
      </trkpt>
      <trkpt lat="47.32391" lon="5.04543">
        <ele>280.36169433594</ele>
        <time>2012-05-25T14:11:05Z</time>
      </trkpt>
      <trkpt lat="47.32389" lon="5.04562">
        <ele>278.91967773438</ele>
        <time>2012-05-25T14:11:09Z</time>
      </trkpt>
      <trkpt lat="47.32399" lon="5.04575">
        <ele>275.07446289062</ele>
        <time>2012-05-25T14:11:15Z</time>
      </trkpt>
      <trkpt lat="47.32425" lon="5.04573">
        <ele>275.55505371094</ele>
        <time>2012-05-25T14:11:22Z</time>
      </trkpt>
      <trkpt lat="47.32472" lon="5.04575">
        <ele>277.47766113281</ele>
        <time>2012-05-25T14:11:35Z</time>
      </trkpt>
      <trkpt lat="47.325" lon="5.04564">
        <ele>279.880859375</ele>
        <time>2012-05-25T14:11:45Z</time>
      </trkpt>
      <trkpt lat="47.32502" lon="5.04558">
        <ele>281.80358886719</ele>
        <time>2012-05-25T14:11:55Z</time>
      </trkpt>
      <trkpt lat="47.32502" lon="5.04554">
        <ele>281.80358886719</ele>
        <time>2012-05-25T14:11:59Z</time>
      </trkpt>
    </trkseg>
  </trk>
</gpx>